Sankuniki — JD2465 — position and weather

sailwx.info

Track history (hours):
 
Tides and Currents Weather Stations Pressure Air Temp Water Temp Dewpoint Dewpoint Depression Visibility Wind Speed Wind Dir Waves Ship Positions

Sankuniki

Last reported at 2016-May-24 23:31 UTC. Time now 2016-May-25 01:29 UTC.
Position N 37°12' E 141°10'.

Length 71 m; draft 4 m.

Type: Cargo ship. MMSI: 431000269.

Date/timePositionNaut miles runAvg speedWind from/ knotsBaromVisibWave heightAir tempDewpointWater temp
2016-May-24 23:31N 37°12' E 141°10'1313.3
2016-May-24 22:34N 36°60' E 141°05'1313.2
2016-May-24 21:33N 36°47' E 141°04'1313.0
2016-May-24 20:32N 36°33' E 141°02'1313.1
2016-May-24 19:33N 36°20' E 141°00'1313.3
2016-May-24 18:34N 36°07' E 140°59'2713.0
2016-May-24 16:29N 35°41' E 140°53'1413.4
2016-May-24 15:28N 35°29' E 140°44'1313.5
2016-May-24 14:28N 35°18' E 140°35'1515.1
2016-May-24 13:30N 35°07' E 140°24'1515.2
2016-May-24 12:32N 34°59' E 140°08'1613.9
2016-May-24 11:24N 34°52' E 139°51'1012.1
2016-May-24 10:33N 35°00' E 139°43'1312.7
2016-May-24 09:33N 35°12' E 139°46'1211.7
2016-May-24 08:33N 35°24' E 139°43'8 7.7
2016-May-24 07:33N 35°29' E 139°49'6 6.1
2016-May-24 06:33N 35°32' E 139°56'9 9.2
2016-May-24 05:33N 35°36' E 140°06'0 0.0
2016-May-24 04:33N 35°36' E 140°06'0 0.0
2016-May-24 03:33N 35°36' E 140°06'0 0.0
2016-May-24 02:33N 35°36' E 140°06'0 0.0
2016-May-24 01:30N 35°36' E 140°06'0 0.0
2016-May-24 00:30N 35°36' E 140°06'0 0.0
2016-May-23 23:30N 35°36' E 140°06'3 2.8
2016-May-23 22:33N 35°35' E 140°03'0 0.1
2016-May-23 21:21N 35°35' E 140°03'0 0.0
2016-May-23 20:33N 35°35' E 140°03'0 0.0
2016-May-23 19:27N 35°35' E 140°03'0 0.0
2016-May-23 18:33N 35°35' E 140°03'0 0.0
2016-May-23 17:27N 35°35' E 140°03'0 0.0
2016-May-23 16:33N 35°35' E 140°03'0 0.0
2016-May-23 15:33N 35°35' E 140°03'0 0.0
2016-May-23 14:33N 35°35' E 140°03'0 0.0
2016-May-23 13:33N 35°35' E 140°03'0 0.0
2016-May-23 12:33N 35°35' E 140°03'0 0.0
2016-May-23 11:33N 35°35' E 140°03'0 0.0
2016-May-23 10:33N 35°35' E 140°03'0 0.0
2016-May-23 09:33N 35°35' E 140°03'2 2.4
2016-May-23 08:33N 35°34' E 140°01'1212.4
2016-May-23 07:33N 35°26' E 139°49'1111.1
2016-May-23 06:33N 35°15' E 139°47'1212.2
2016-May-23 05:33N 35°03' E 139°44'19 7.8
2016-May-23 03:10N 34°57' E 140°05'2710.3
2016-May-23 00:33N 35°14' E 140°31'2512.2
2016-May-22 22:31N 35°35' E 140°48'1411.9
2016-May-22 21:18N 35°48' E 140°56'912.3
2016-May-22 20:33N 35°57' E 140°58'2412.2
2016-May-22 18:33N 36°21' E 141°00'5512.2
2016-May-22 14:05N 37°15' E 141°08'  
2016-May-17 22:33N 36°34' E 141°02'1212.1
2016-May-17 21:33N 36°22' E 141°00'1212.2
2016-May-17 20:33N 36°10' E 140°59'1212.3
2016-May-17 19:33N 35°57' E 140°57'1212.1
2016-May-17 18:33N 35°45' E 140°56'2311.7
2016-May-17 16:33N 35°26' E 140°40'1211.7
2016-May-17 15:32N 35°16' E 140°32'2412.1
2016-May-17 13:32N 34°60' E 140°10'1211.6
2016-May-17 12:31N 34°54' E 139°58'1010.2
2016-May-17 11:30N 34°55' E 139°45'1212.0
2016-May-17 10:33N 35°06' E 139°44'1212.1
2016-May-17 09:33N 35°18' E 139°44'1110.9
2016-May-17 08:33N 35°28' E 139°49'1212.2
2016-May-17 07:34N 35°38' E 139°59'2 2.4
2016-May-17 06:33N 35°40' E 139°60'0 0.0
2016-May-17 05:34N 35°40' E 139°60'0 0.0
2016-May-17 04:33N 35°40' E 139°60'0 0.0
2016-May-17 03:34N 35°40' E 139°60'0 0.0
2016-May-17 02:33N 35°40' E 139°60'0 0.0
2016-May-17 01:33N 35°40' E 139°60'0 0.0
2016-May-17 00:33N 35°40' E 139°60'0 0.0
2016-May-16 23:33N 35°40' E 139°60'0 0.0
2016-May-16 22:33N 35°40' E 139°60'0 0.0
2016-May-16 21:33N 35°40' E 139°60'0 0.0
2016-May-16 20:32N 35°40' E 139°60'0 0.0
2016-May-16 19:33N 35°40' E 139°60'0 0.0
2016-May-16 18:34N 35°40' E 139°60'0 0.0
2016-May-16 17:33N 35°40' E 139°60'0 0.0
2016-May-16 16:33N 35°40' E 139°60'0 0.0
2016-May-16 15:33N 35°40' E 139°60'0 0.0
2016-May-16 14:32N 35°40' E 139°60'0 0.0
2016-May-16 13:33N 35°40' E 139°60'0 0.0
2016-May-16 12:32N 35°40' E 139°60'0 0.0
2016-May-16 11:34N 35°40' E 139°60'0 0.0
2016-May-16 10:33N 35°40' E 139°60'0 0.0
2016-May-16 09:33N 35°40' E 139°60'0 0.0
2016-May-16 08:33N 35°40' E 139°60'0 0.0
2016-May-16 07:33N 35°40' E 139°60'6 6.1
2016-May-16 06:33N 35°34' E 139°58'1313.5
2016-May-16 05:33N 35°24' E 139°46'5 5.2
2016-May-16 04:33N 35°24' E 139°40'0 0.0
2016-May-16 03:33N 35°24' E 139°40'0 0.0
2016-May-16 02:33N 35°24' E 139°40'0 0.0
2016-May-16 01:33N 35°24' E 139°40'0 0.0
2016-May-16 00:33N 35°24' E 139°40'0 0.0
2016-May-15 23:33N 35°24' E 139°40'1 1.4
2016-May-15 22:33N 35°23' E 139°40'0 0.0
2016-May-15 21:33N 35°23' E 139°40'0 0.0
2016-May-15 20:33N 35°23' E 139°40'0 0.0
2016-May-15 19:34N 35°23' E 139°40'0 0.1
2016-May-15 18:33N 35°23' E 139°40'0 0.0
2016-May-15 17:33N 35°23' E 139°40'0 0.0
2016-May-15 16:33N 35°23' E 139°40'0 0.0
2016-May-15 15:33N 35°23' E 139°40'5 4.6
2016-May-15 14:33N 35°19' E 139°44'1110.8
2016-May-15 13:33N 35°08' E 139°46'19 9.1
2016-May-15 11:31N 34°52' E 139°57'10 8.9
2016-May-15 10:25N 34°58' E 140°07'  
Track history (hours):
 
Tides and Currents Weather Stations Pressure Air Temp Water Temp Dewpoint Dewpoint Depression Visibility Wind Speed Wind Dir Waves Ship Positions

Sankuniki

Last reported at 2016-May-24 23:31 UTC. Time now 2016-May-25 01:29 UTC.
Position N 37°12' E 141°10'.

Length 71 m; draft 4 m.

Type: Cargo ship. MMSI: 431000269.

Date/timePositionNaut miles runAvg speedWind from/ knotsBaromVisibWave heightAir tempDewpointWater temp
2016-May-24 23:31N 37°12' E 141°10'1313.3
2016-May-24 22:34N 36°60' E 141°05'1313.2
2016-May-24 21:33N 36°47' E 141°04'1313.0
2016-May-24 20:32N 36°33' E 141°02'1313.1
2016-May-24 19:33N 36°20' E 141°00'1313.3
2016-May-24 18:34N 36°07' E 140°59'2713.0
2016-May-24 16:29N 35°41' E 140°53'1413.4
2016-May-24 15:28N 35°29' E 140°44'1313.5
2016-May-24 14:28N 35°18' E 140°35'1515.1
2016-May-24 13:30N 35°07' E 140°24'1515.2
2016-May-24 12:32N 34°59' E 140°08'1613.9
2016-May-24 11:24N 34°52' E 139°51'1012.1
2016-May-24 10:33N 35°00' E 139°43'1312.7
2016-May-24 09:33N 35°12' E 139°46'1211.7
2016-May-24 08:33N 35°24' E 139°43'8 7.7
2016-May-24 07:33N 35°29' E 139°49'6 6.1
2016-May-24 06:33N 35°32' E 139°56'9 9.2
2016-May-24 05:33N 35°36' E 140°06'0 0.0
2016-May-24 04:33N 35°36' E 140°06'0 0.0
2016-May-24 03:33N 35°36' E 140°06'0 0.0
2016-May-24 02:33N 35°36' E 140°06'0 0.0
2016-May-24 01:30N 35°36' E 140°06'0 0.0
2016-May-24 00:30N 35°36' E 140°06'0 0.0
2016-May-23 23:30N 35°36' E 140°06'3 2.8
2016-May-23 22:33N 35°35' E 140°03'0 0.1
2016-May-23 21:21N 35°35' E 140°03'0 0.0
2016-May-23 20:33N 35°35' E 140°03'0 0.0
2016-May-23 19:27N 35°35' E 140°03'0 0.0
2016-May-23 18:33N 35°35' E 140°03'0 0.0
2016-May-23 17:27N 35°35' E 140°03'0 0.0
2016-May-23 16:33N 35°35' E 140°03'0 0.0
2016-May-23 15:33N 35°35' E 140°03'0 0.0
2016-May-23 14:33N 35°35' E 140°03'0 0.0
2016-May-23 13:33N 35°35' E 140°03'0 0.0
2016-May-23 12:33N 35°35' E 140°03'0 0.0
2016-May-23 11:33N 35°35' E 140°03'0 0.0
2016-May-23 10:33N 35°35' E 140°03'0 0.0
2016-May-23 09:33N 35°35' E 140°03'2 2.4
2016-May-23 08:33N 35°34' E 140°01'1212.4
2016-May-23 07:33N 35°26' E 139°49'1111.1
2016-May-23 06:33N 35°15' E 139°47'1212.2
2016-May-23 05:33N 35°03' E 139°44'19 7.8
2016-May-23 03:10N 34°57' E 140°05'2710.3
2016-May-23 00:33N 35°14' E 140°31'2512.2
2016-May-22 22:31N 35°35' E 140°48'1411.9
2016-May-22 21:18N 35°48' E 140°56'912.3
2016-May-22 20:33N 35°57' E 140°58'2412.2
2016-May-22 18:33N 36°21' E 141°00'5512.2
2016-May-22 14:05N 37°15' E 141°08'  
2016-May-17 22:33N 36°34' E 141°02'1212.1
2016-May-17 21:33N 36°22' E 141°00'1212.2
2016-May-17 20:33N 36°10' E 140°59'1212.3
2016-May-17 19:33N 35°57' E 140°57'1212.1
2016-May-17 18:33N 35°45' E 140°56'2311.7
2016-May-17 16:33N 35°26' E 140°40'1211.7
2016-May-17 15:32N 35°16' E 140°32'2412.1
2016-May-17 13:32N 34°60' E 140°10'1211.6
2016-May-17 12:31N 34°54' E 139°58'1010.2
2016-May-17 11:30N 34°55' E 139°45'1212.0
2016-May-17 10:33N 35°06' E 139°44'1212.1
2016-May-17 09:33N 35°18' E 139°44'1110.9
2016-May-17 08:33N 35°28' E 139°49'1212.2
2016-May-17 07:34N 35°38' E 139°59'2 2.4
2016-May-17 06:33N 35°40' E 139°60'0 0.0
2016-May-17 05:34N 35°40' E 139°60'0 0.0
2016-May-17 04:33N 35°40' E 139°60'0 0.0
2016-May-17 03:34N 35°40' E 139°60'0 0.0
2016-May-17 02:33N 35°40' E 139°60'0 0.0
2016-May-17 01:33N 35°40' E 139°60'0 0.0
2016-May-17 00:33N 35°40' E 139°60'0 0.0
2016-May-16 23:33N 35°40' E 139°60'0 0.0
2016-May-16 22:33N 35°40' E 139°60'0 0.0
2016-May-16 21:33N 35°40' E 139°60'0 0.0
2016-May-16 20:32N 35°40' E 139°60'0 0.0
2016-May-16 19:33N 35°40' E 139°60'0 0.0
2016-May-16 18:34N 35°40' E 139°60'0 0.0
2016-May-16 17:33N 35°40' E 139°60'0 0.0
2016-May-16 16:33N 35°40' E 139°60'0 0.0
2016-May-16 15:33N 35°40' E 139°60'0 0.0
2016-May-16 14:32N 35°40' E 139°60'0 0.0
2016-May-16 13:33N 35°40' E 139°60'0 0.0
2016-May-16 12:32N 35°40' E 139°60'0 0.0
2016-May-16 11:34N 35°40' E 139°60'0 0.0
2016-May-16 10:33N 35°40' E 139°60'0 0.0
2016-May-16 09:33N 35°40' E 139°60'0 0.0
2016-May-16 08:33N 35°40' E 139°60'0 0.0
2016-May-16 07:33N 35°40' E 139°60'6 6.1
2016-May-16 06:33N 35°34' E 139°58'1313.5
2016-May-16 05:33N 35°24' E 139°46'5 5.2
2016-May-16 04:33N 35°24' E 139°40'0 0.0
2016-May-16 03:33N 35°24' E 139°40'0 0.0
2016-May-16 02:33N 35°24' E 139°40'0 0.0
2016-May-16 01:33N 35°24' E 139°40'0 0.0
2016-May-16 00:33N 35°24' E 139°40'0 0.0
2016-May-15 23:33N 35°24' E 139°40'1 1.4
2016-May-15 22:33N 35°23' E 139°40'0 0.0
2016-May-15 21:33N 35°23' E 139°40'0 0.0
2016-May-15 20:33N 35°23' E 139°40'0 0.0
2016-May-15 19:34N 35°23' E 139°40'0 0.1
2016-May-15 18:33N 35°23' E 139°40'0 0.0
2016-May-15 17:33N 35°23' E 139°40'0 0.0
2016-May-15 16:33N 35°23' E 139°40'0 0.0
2016-May-15 15:33N 35°23' E 139°40'5 4.6
2016-May-15 14:33N 35°19' E 139°44'1110.8
2016-May-15 13:33N 35°08' E 139°46'19 9.1
2016-May-15 11:31N 34°52' E 139°57'10 8.9
2016-May-15 10:25N 34°58' E 140°07'  

Dump ship's entire track history